createdAt,value
2022-08-07T00:02:35.285Z,15.00
2022-08-07T00:04:48.643Z,15.00
2022-08-07T00:07:59.885Z,15.00
2022-08-07T00:11:08.854Z,15.00
2022-08-07T00:14:19.126Z,15.00
2022-08-07T00:17:35.316Z,15.00
2022-08-07T00:20:45.777Z,15.00
2022-08-07T00:23:55.835Z,15.00
2022-08-07T00:27:07.131Z,15.00
2022-08-07T00:30:27.644Z,15.00
2022-08-07T00:33:37.906Z,15.00
2022-08-07T00:36:47.777Z,14.90
2022-08-07T00:39:56.092Z,14.80
2022-08-07T00:43:04.602Z,14.80
2022-08-07T00:46:18.363Z,14.90
2022-08-07T00:50:21.452Z,14.90
2022-08-07T00:52:56.089Z,14.90
2022-08-07T00:56:04.432Z,14.90
2022-08-07T00:59:35.426Z,14.90
2022-08-07T01:02:44.402Z,14.90
2022-08-07T01:05:56.453Z,15.00
2022-08-07T01:09:06.332Z,14.90
2022-08-07T01:12:28.950Z,15.00
2022-08-07T01:16:05.413Z,15.00
2022-08-07T01:19:18.111Z,14.90
2022-08-07T01:22:31.812Z,14.90
2022-08-07T01:25:55.836Z,14.90
2022-08-07T01:29:06.268Z,15.00
2022-08-07T01:32:15.978Z,14.90
2022-08-07T01:35:52.834Z,14.90
2022-08-07T01:38:59.170Z,14.90
2022-08-07T01:42:37.843Z,14.90
2022-08-07T01:45:37.134Z,15.00
2022-08-07T01:48:53.703Z,14.90
2022-08-07T01:52:06.930Z,15.00
2022-08-07T01:55:22.562Z,15.00
2022-08-07T01:58:41.038Z,14.90
2022-08-07T02:02:04.250Z,15.00
2022-08-07T02:05:47.907Z,15.00
2022-08-07T02:08:50.449Z,15.00
2022-08-07T02:12:18.109Z,14.90
2022-08-07T02:15:34.009Z,14.90
2022-08-07T02:18:46.801Z,15.00
2022-08-07T02:21:58.459Z,14.90
2022-08-07T02:25:13.752Z,14.90
2022-08-07T02:28:32.401Z,14.80
2022-08-07T02:31:45.962Z,14.80
2022-08-07T02:34:58.260Z,14.80
2022-08-07T02:38:09.931Z,14.80
2022-08-07T02:41:21.644Z,14.80
2022-08-07T02:44:36.502Z,14.80
2022-08-07T02:47:49.192Z,14.80
2022-08-07T02:51:06.828Z,14.80
2022-08-07T02:54:16.385Z,14.80
2022-08-07T02:57:25.577Z,14.80
2022-08-07T03:00:47.396Z,14.80
2022-08-07T03:03:59.035Z,14.80
2022-08-07T03:07:11.690Z,14.80
2022-08-07T03:10:24.202Z,14.80
2022-08-07T03:13:38.883Z,14.90
2022-08-07T03:16:59.881Z,14.90
2022-08-07T03:20:14.449Z,14.90
2022-08-07T03:23:33.833Z,14.80
2022-08-07T03:26:58.297Z,14.90
2022-08-07T03:30:08.452Z,14.90
2022-08-07T03:33:21.861Z,14.90
2022-08-07T03:36:32.068Z,14.90
2022-08-07T03:39:56.594Z,14.90
2022-08-07T03:43:10.132Z,14.90
2022-08-07T03:46:26.875Z,14.90
2022-08-07T03:49:37.485Z,14.80
2022-08-07T03:52:49.065Z,14.80
2022-08-07T03:56:04.373Z,14.80
2022-08-07T03:59:16.869Z,14.70
2022-08-07T04:02:29.669Z,14.80
2022-08-07T04:05:42.479Z,14.80
2022-08-07T04:09:00.681Z,14.80
2022-08-07T04:12:27.520Z,14.80
2022-08-07T04:15:38.649Z,14.80
2022-08-07T04:18:59.130Z,14.80
2022-08-07T04:22:17.247Z,14.90
2022-08-07T04:25:29.198Z,14.90
2022-08-07T04:28:39.358Z,14.90
2022-08-07T04:32:03.153Z,14.90
2022-08-07T04:35:18.696Z,14.90
2022-08-07T04:38:32.188Z,14.90
2022-08-07T04:41:42.837Z,15.00
2022-08-07T04:45:07.930Z,15.00
2022-08-07T04:48:25.297Z,15.10
2022-08-07T04:51:41.803Z,15.10
2022-08-07T04:55:14.980Z,15.20
2022-08-07T04:59:17.020Z,15.20
2022-08-07T05:02:16.829Z,15.30
2022-08-07T05:05:53.314Z,15.30
2022-08-07T05:09:10.256Z,15.30
2022-08-07T05:12:31.332Z,15.40
2022-08-07T05:15:44.870Z,15.40
2022-08-07T05:19:00.207Z,15.40
2022-08-07T05:22:12.167Z,15.40
2022-08-07T05:25:35.583Z,15.30
2022-08-07T05:28:57.807Z,15.30
2022-08-07T05:32:10.389Z,15.40
2022-08-07T05:35:23.798Z,15.40
2022-08-07T05:39:01.294Z,15.40
2022-08-07T05:42:13.722Z,15.50
2022-08-07T05:45:46.549Z,15.60
2022-08-07T05:48:59.101Z,15.70
2022-08-07T05:52:12.244Z,15.80
2022-08-07T05:55:22.044Z,15.90
2022-08-07T05:58:36.574Z,15.90
2022-08-07T06:01:51.594Z,16.00
2022-08-07T06:05:04.941Z,16.10
2022-08-07T06:08:31.585Z,16.00
2022-08-07T06:11:41.051Z,15.90
2022-08-07T06:14:50.668Z,15.90
2022-08-07T06:18:01.411Z,15.80
2022-08-07T06:22:15.415Z,15.80
2022-08-07T06:24:52.828Z,15.90
2022-08-07T06:28:08.654Z,16.00
2022-08-07T06:31:17.104Z,16.10
2022-08-07T06:34:30.422Z,16.20
2022-08-07T06:37:43.463Z,16.20
2022-08-07T06:40:55.406Z,16.30
2022-08-07T06:44:10.827Z,16.20
2022-08-07T06:47:21.089Z,16.10
2022-08-07T06:50:35.951Z,16.10
2022-08-07T06:55:28.184Z,16.10
2022-08-07T06:57:16.998Z,16.00
2022-08-07T07:00:27.527Z,16.20
2022-08-07T07:03:47.547Z,16.20
2022-08-07T07:07:01.267Z,16.20
2022-08-07T07:10:10.693Z,16.20
2022-08-07T07:13:55.959Z,16.30
2022-08-07T07:16:54.061Z,16.30
2022-08-07T07:20:06.292Z,16.20
2022-08-07T07:24:08.822Z,16.30
2022-08-07T07:26:51.855Z,16.40
2022-08-07T07:30:08.685Z,16.40
2022-08-07T07:33:19.909Z,16.40
2022-08-07T07:36:32.185Z,16.50
2022-08-07T07:39:51.993Z,16.40
2022-08-07T07:43:15.168Z,16.30
2022-08-07T07:46:40.289Z,16.20
2022-08-07T07:50:33.100Z,16.30
2022-08-07T07:53:28.160Z,16.30
2022-08-07T07:56:45.550Z,16.40
2022-08-07T07:59:56.826Z,16.40
2022-08-07T08:03:09.336Z,16.30
2022-08-07T08:06:26.982Z,16.30
2022-08-07T08:09:51.790Z,16.20
2022-08-07T08:13:07.279Z,16.20
2022-08-07T08:16:25.126Z,16.10
2022-08-07T08:20:18.311Z,16.10
2022-08-07T08:23:22.282Z,16.10
2022-08-07T08:26:53.550Z,16.00
2022-08-07T08:30:05.998Z,16.20
2022-08-07T08:33:18.864Z,16.40
2022-08-07T08:36:33.808Z,16.60
2022-08-07T08:39:55.167Z,16.90
2022-08-07T08:43:13.347Z,17.20
2022-08-07T08:46:35.275Z,17.30
2022-08-07T08:50:04.646Z,17.50
2022-08-07T08:53:20.470Z,17.60
2022-08-07T08:56:31.792Z,17.60
2022-08-07T08:59:48.694Z,17.70
2022-08-07T09:03:07.455Z,17.50
2022-08-07T09:06:22.783Z,17.60
2022-08-07T09:09:56.692Z,17.80
2022-08-07T09:13:15.069Z,17.90
2022-08-07T09:16:35.264Z,18.00
2022-08-07T09:19:59.683Z,18.20
2022-08-07T09:24:32.765Z,18.60
2022-08-07T09:27:04.724Z,18.80
2022-08-07T09:30:27.936Z,18.40
2022-08-07T09:33:57.904Z,17.90
2022-08-07T09:37:13.453Z,17.60
2022-08-07T09:40:29.755Z,17.50
2022-08-07T09:44:06.248Z,17.40
2022-08-07T09:48:00.179Z,17.20
2022-08-07T09:51:03.441Z,17.20
2022-08-07T09:54:29.799Z,17.20
2022-08-07T09:58:15.161Z,17.20
2022-08-07T10:01:51.018Z,17.20
2022-08-07T10:05:58.923Z,17.30
2022-08-07T10:09:15.276Z,17.60
2022-08-07T10:12:53.553Z,17.80
2022-08-07T10:16:12.249Z,17.90
2022-08-07T10:19:38.813Z,17.50
2022-08-07T10:23:13.045Z,17.50
2022-08-07T10:26:33.782Z,17.50
2022-08-07T10:30:06.259Z,17.60
2022-08-07T10:34:06.060Z,17.70
2022-08-07T10:37:12.731Z,17.70
2022-08-07T10:40:30.048Z,17.60
2022-08-07T10:43:45.185Z,17.70
2022-08-07T10:47:03.002Z,17.80
2022-08-07T10:50:26.001Z,17.80
2022-08-07T10:53:45.582Z,17.70
2022-08-07T10:57:07.386Z,17.70
2022-08-07T11:00:39.251Z,17.70
2022-08-07T11:04:05.467Z,17.70
2022-08-07T11:07:59.306Z,17.80
2022-08-07T11:11:09.928Z,17.80
2022-08-07T11:14:43.825Z,17.80
2022-08-07T11:18:03.692Z,18.00
2022-08-07T11:21:40.868Z,18.00
2022-08-07T11:24:59.557Z,18.10
2022-08-07T11:28:18.535Z,18.20
2022-08-07T11:31:35.571Z,18.20
2022-08-07T11:34:49.692Z,18.10
2022-08-07T11:38:12.356Z,18.10
2022-08-07T11:41:29.692Z,17.90
2022-08-07T11:44:58.157Z,17.70
2022-08-07T11:48:29.797Z,17.40
2022-08-07T11:52:00.225Z,17.40
2022-08-07T11:56:25.299Z,17.30
2022-08-07T11:58:59.928Z,17.30
2022-08-07T12:02:30.432Z,17.30
2022-08-07T12:05:49.407Z,17.10
2022-08-07T12:09:04.658Z,16.90
2022-08-07T12:12:21.271Z,16.80
2022-08-07T12:16:06.027Z,16.70
2022-08-07T12:19:14.599Z,16.80
2022-08-07T12:22:55.927Z,16.70
2022-08-07T12:26:30.037Z,16.70
2022-08-07T12:29:47.409Z,16.80
2022-08-07T12:33:09.326Z,16.80
2022-08-07T12:36:33.619Z,16.80
2022-08-07T12:39:51.000Z,16.90
2022-08-07T12:43:09.342Z,16.90
2022-08-07T12:46:32.755Z,17.00
2022-08-07T12:49:52.869Z,16.70
2022-08-07T12:53:18.073Z,16.50
2022-08-07T12:56:30.309Z,16.40
2022-08-07T12:59:55.139Z,16.30
2022-08-07T13:03:26.907Z,16.20
2022-08-07T13:07:07.486Z,16.20
2022-08-07T13:10:39.588Z,16.20
2022-08-07T13:14:03.173Z,16.10
2022-08-07T13:17:18.176Z,16.00
2022-08-07T13:20:41.150Z,16.00
2022-08-07T13:24:03.915Z,16.00
2022-08-07T13:27:20.458Z,16.00
2022-08-07T13:30:39.895Z,16.10
2022-08-07T13:34:29.974Z,16.00
2022-08-07T13:37:38.535Z,16.00
2022-08-07T13:40:56.025Z,15.90
2022-08-07T13:44:10.378Z,15.90
2022-08-07T13:47:25.172Z,16.00
2022-08-07T13:50:44.546Z,15.90
2022-08-07T13:54:08.402Z,15.80
2022-08-07T13:57:37.613Z,15.80
2022-08-07T14:00:53.964Z,15.70
2022-08-07T14:04:14.323Z,15.60
2022-08-07T14:07:28.649Z,15.60
2022-08-07T14:10:43.730Z,15.50
2022-08-07T14:13:56.706Z,15.40
2022-08-07T14:17:32.278Z,15.50
2022-08-07T14:20:48.732Z,15.60
2022-08-07T14:24:03.710Z,16.00
2022-08-07T14:28:09.506Z,16.10
2022-08-07T14:30:52.234Z,16.30
2022-08-07T14:34:01.756Z,16.40
2022-08-07T14:37:18.336Z,16.40
2022-08-07T14:40:34.811Z,16.50
2022-08-07T14:43:58.617Z,16.50
2022-08-07T14:47:17.434Z,16.50
2022-08-07T14:50:28.012Z,16.40
2022-08-07T14:57:19.169Z,16.70
2022-08-07T15:00:42.034Z,16.70
2022-08-07T15:07:23.874Z,16.80
2022-08-07T15:10:59.146Z,16.90
2022-08-07T15:14:16.217Z,17.00
2022-08-07T15:17:32.673Z,17.00
2022-08-07T15:21:03.756Z,17.00
2022-08-07T15:25:13.621Z,17.10
2022-08-07T15:28:34.669Z,17.20
2022-08-07T15:32:00.619Z,17.20
2022-08-07T15:35:13.499Z,17.10
2022-08-07T15:38:30.937Z,17.20
2022-08-07T15:42:45.116Z,17.20
2022-08-07T15:45:56.587Z,17.20
2022-08-07T15:49:14.502Z,17.10
2022-08-07T15:52:29.685Z,17.10
2022-08-07T15:56:01.983Z,17.10
2022-08-07T15:59:16.331Z,17.10
2022-08-07T16:02:30.023Z,17.00
2022-08-07T16:05:41.090Z,17.10
2022-08-07T16:08:55.042Z,17.00
2022-08-07T16:12:14.741Z,17.10
2022-08-07T16:15:57.842Z,17.00
2022-08-07T16:19:41.824Z,17.00
2022-08-07T16:23:09.703Z,16.90
2022-08-07T16:26:35.969Z,17.00
2022-08-07T16:30:09.869Z,16.90
2022-08-07T16:34:01.858Z,16.90
2022-08-07T16:38:04.826Z,16.90
2022-08-07T16:41:18.022Z,16.90
2022-08-07T16:45:06.549Z,16.90
2022-08-07T16:48:58.541Z,16.90
2022-08-07T16:52:49.305Z,16.90
2022-08-07T16:55:54.754Z,16.90
2022-08-07T16:59:14.332Z,16.90
2022-08-07T17:03:04.860Z,16.90
2022-08-07T17:06:39.952Z,16.90
2022-08-07T17:10:06.053Z,16.80
2022-08-07T17:14:17.463Z,16.60
2022-08-07T17:17:21.633Z,16.50
2022-08-07T17:20:35.534Z,16.50
2022-08-07T17:23:55.867Z,16.30
2022-08-07T17:27:08.824Z,16.20
2022-08-07T17:30:20.551Z,16.20
2022-08-07T17:34:08.715Z,16.20
2022-08-07T17:38:11.468Z,16.20
2022-08-07T17:40:50.878Z,16.20
2022-08-07T17:44:09.327Z,16.20
2022-08-07T17:47:37.899Z,16.20
2022-08-07T17:50:55.596Z,16.20
2022-08-07T17:54:14.821Z,16.20
2022-08-07T17:57:58.923Z,16.10
2022-08-07T18:01:21.062Z,16.10
2022-08-07T18:04:35.123Z,16.20
2022-08-07T18:07:47.357Z,16.10
2022-08-07T18:12:06.542Z,16.10
2022-08-07T18:14:46.025Z,16.10
2022-08-07T18:19:02.542Z,16.10
2022-08-07T18:21:57.778Z,16.10
2022-08-07T18:25:19.393Z,16.00
2022-08-07T18:28:58.149Z,15.90
2022-08-07T18:32:19.200Z,15.90
2022-08-07T18:35:51.778Z,15.90
2022-08-07T18:40:08.090Z,15.90
2022-08-07T18:42:46.962Z,16.00
2022-08-07T18:46:26.026Z,15.90
2022-08-07T18:50:31.150Z,15.80
2022-08-07T18:53:16.324Z,15.70
2022-08-07T18:56:34.694Z,15.70
2022-08-07T19:00:04.488Z,15.60
2022-08-07T19:03:42.311Z,15.60
2022-08-07T19:06:56.073Z,15.60
2022-08-07T19:10:14.882Z,15.60
2022-08-07T19:30:55.675Z,15.40
2022-08-07T19:32:10.854Z,15.50
2022-08-07T19:35:19.759Z,15.50
2022-08-07T19:38:35.175Z,15.50
2022-08-07T19:42:24.451Z,15.50
2022-08-07T19:46:06.053Z,15.50
2022-08-07T19:49:17.247Z,15.50
2022-08-07T19:52:28.278Z,15.50
2022-08-07T19:55:56.764Z,15.50
2022-08-07T19:59:27.273Z,15.50
2022-08-07T20:02:53.648Z,15.60
2022-08-07T20:06:04.447Z,15.60
2022-08-07T20:10:34.082Z,15.50
2022-08-07T20:12:46.703Z,15.30
2022-08-07T20:15:58.753Z,15.20
2022-08-07T20:19:10.070Z,15.10
2022-08-07T20:22:29.029Z,15.10
2022-08-07T20:25:50.916Z,15.10
2022-08-07T20:29:10.414Z,15.10
2022-08-07T20:32:27.389Z,15.10
2022-08-07T20:35:51.659Z,15.10
2022-08-07T20:39:31.109Z,15.10
2022-08-07T20:42:34.517Z,15.10
2022-08-07T20:46:26.044Z,15.20
2022-08-07T20:50:01.029Z,15.20
2022-08-07T20:52:54.010Z,15.20
2022-08-07T20:56:04.228Z,15.20
2022-08-07T21:00:05.318Z,15.20
2022-08-07T21:03:00.732Z,15.20
2022-08-07T21:06:21.745Z,15.10
2022-08-07T21:09:53.290Z,15.00
2022-08-07T21:13:08.598Z,15.10
2022-08-07T21:16:18.310Z,15.00
2022-08-07T21:19:32.540Z,15.00
2022-08-07T21:23:07.605Z,15.00
2022-08-07T21:26:27.125Z,15.00
2022-08-07T21:29:53.002Z,15.00
2022-08-07T21:33:16.203Z,14.90
2022-08-07T21:36:32.745Z,15.00
2022-08-07T21:39:54.890Z,15.00
2022-08-07T21:43:10.747Z,14.90
2022-08-07T21:46:31.773Z,14.90
2022-08-07T21:50:01.878Z,14.90
2022-08-07T21:53:19.474Z,14.90
2022-08-07T21:56:39.828Z,14.90
2022-08-07T22:00:05.570Z,14.90
2022-08-07T22:03:31.004Z,14.80
2022-08-07T22:06:46.038Z,14.80
2022-08-07T22:10:03.951Z,14.80
2022-08-07T22:13:16.180Z,14.70
2022-08-07T22:16:45.429Z,14.70
2022-08-07T22:20:10.840Z,14.70
2022-08-07T22:23:40.387Z,14.60
2022-08-07T22:26:56.884Z,14.60
2022-08-07T22:30:13.862Z,14.50
2022-08-07T22:33:53.160Z,14.50
2022-08-07T22:37:05.045Z,14.50
2022-08-07T22:40:23.952Z,14.50
2022-08-07T22:43:40.315Z,14.50
2022-08-07T22:47:06.085Z,14.50
2022-08-07T22:50:33.650Z,14.50
2022-08-07T22:54:07.767Z,14.50
2022-08-07T22:57:37.415Z,14.50
2022-08-07T23:01:05.377Z,14.50
2022-08-07T23:04:30.902Z,14.50
2022-08-07T23:07:52.086Z,14.50
2022-08-07T23:11:13.164Z,14.50
2022-08-07T23:14:36.988Z,14.50
2022-08-07T23:18:10.221Z,14.50
2022-08-07T23:21:36.432Z,14.50
2022-08-07T23:25:00.641Z,14.40
2022-08-07T23:28:28.456Z,14.50
2022-08-07T23:34:20.021Z,14.50
2022-08-07T23:35:25.725Z,14.40
2022-08-07T23:38:57.169Z,14.40
2022-08-07T23:42:30.433Z,14.40
2022-08-07T23:46:03.794Z,14.30
2022-08-07T23:49:50.530Z,14.30
2022-08-07T23:53:15.328Z,14.30
2022-08-07T23:56:31.358Z,14.30
